createdAt,value
2023-03-31T00:01:49.214Z,1.60
2023-03-31T00:04:34.677Z,1.38
2023-03-31T00:07:24.787Z,2.17
2023-03-31T00:13:02.420Z,2.22
2023-03-31T00:15:47.436Z,7.03
2023-03-31T00:18:33.169Z,2.60
2023-03-31T00:21:29.515Z,1.77
2023-03-31T00:24:16.226Z,2.10
2023-03-31T00:27:05.418Z,2.40
2023-03-31T00:29:53.043Z,1.38
2023-03-31T00:32:38.369Z,1.27
2023-03-31T00:35:23.689Z,1.90
2023-03-31T00:38:09.782Z,1.25
2023-03-31T00:40:54.969Z,1.80
2023-03-31T00:43:40.810Z,1.23
2023-03-31T00:46:37.689Z,1.42
2023-03-31T00:49:25.530Z,1.20
2023-03-31T00:52:30.119Z,1.33
2023-03-31T00:55:19.067Z,1.23
2023-03-31T00:58:07.247Z,1.27
2023-03-31T01:00:52.937Z,1.30
2023-03-31T01:03:39.287Z,1.30
2023-03-31T01:06:25.741Z,1.70
2023-03-31T01:09:11.249Z,1.30
2023-03-31T01:11:57.096Z,1.50
2023-03-31T01:14:42.489Z,1.13
2023-03-31T01:17:29.870Z,1.00
2023-03-31T01:20:33.469Z,1.20
2023-03-31T01:23:53.913Z,1.08
2023-03-31T01:26:57.562Z,1.08
2023-03-31T01:29:57.622Z,1.55
2023-03-31T01:33:00.882Z,1.35
2023-03-31T01:36:03.336Z,1.35
2023-03-31T01:39:13.371Z,0.77
2023-03-31T01:42:17.165Z,1.13
2023-03-31T01:45:20.203Z,1.23
2023-03-31T01:51:05.675Z,1.05
2023-03-31T01:54:04.812Z,1.42
2023-03-31T01:56:57.992Z,1.73
2023-03-31T01:59:54.773Z,0.93
2023-03-31T02:02:48.112Z,0.98
2023-03-31T02:05:40.713Z,1.25
2023-03-31T02:08:31.181Z,0.88
2023-03-31T02:11:17.011Z,1.75
2023-03-31T02:14:04.754Z,1.67
2023-03-31T02:16:58.197Z,1.10
2023-03-31T02:19:47.153Z,1.15
2023-03-31T02:22:36.244Z,0.98
2023-03-31T02:25:26.314Z,1.05
2023-03-31T02:28:18.381Z,0.85
2023-03-31T02:31:13.030Z,1.25
2023-03-31T02:33:58.784Z,1.58
2023-03-31T02:36:47.874Z,1.13
2023-03-31T02:39:35.580Z,1.10
2023-03-31T02:42:21.226Z,1.58
2023-03-31T02:45:27.307Z,1.02
2023-03-31T02:48:32.926Z,1.30
2023-03-31T02:51:41.109Z,2.15
2023-03-31T02:54:56.952Z,1.13
2023-03-31T02:58:24.613Z,1.45
2023-03-31T03:01:33.220Z,1.58
2023-03-31T03:04:26.867Z,1.50
2023-03-31T03:07:58.180Z,1.33
2023-03-31T03:11:18.015Z,1.33
2023-03-31T03:14:24.388Z,1.55
2023-03-31T03:17:18.698Z,1.92
2023-03-31T03:20:09.458Z,1.48
2023-03-31T03:22:55.400Z,1.80
2023-03-31T03:25:40.345Z,1.38
2023-03-31T03:28:25.697Z,1.58
2023-03-31T03:31:11.265Z,1.60
2023-03-31T03:33:56.300Z,1.85
2023-03-31T03:36:41.772Z,1.48
2023-03-31T03:39:27.032Z,1.70
2023-03-31T03:42:12.447Z,1.77
2023-03-31T03:44:57.713Z,1.40
2023-03-31T03:47:43.249Z,1.42
2023-03-31T03:50:28.613Z,1.77
2023-03-31T03:53:15.207Z,1.27
2023-03-31T03:56:01.490Z,1.90
2023-03-31T03:58:46.737Z,1.33
2023-03-31T04:01:32.358Z,1.65
2023-03-31T04:04:17.958Z,2.17
2023-03-31T04:07:02.928Z,1.55
2023-03-31T04:09:48.513Z,2.47
2023-03-31T04:12:37.264Z,2.80
2023-03-31T04:15:22.590Z,1.70
2023-03-31T04:18:10.703Z,1.70
2023-03-31T04:21:05.292Z,1.90
2023-03-31T04:24:01.750Z,1.50
2023-03-31T04:26:50.587Z,1.63
2023-03-31T04:29:37.204Z,2.38
2023-03-31T04:32:23.657Z,1.95
2023-03-31T04:35:09.076Z,1.45
2023-03-31T04:37:58.815Z,1.77
2023-03-31T04:40:49.354Z,1.63
2023-03-31T04:43:34.548Z,1.58
2023-03-31T04:46:20.259Z,1.70
2023-03-31T04:49:06.220Z,1.60
2023-03-31T04:51:51.247Z,1.75
2023-03-31T04:54:36.610Z,1.83
2023-03-31T04:57:22.140Z,1.65
2023-03-31T05:00:08.121Z,2.50
2023-03-31T05:02:53.583Z,2.15
2023-03-31T05:05:38.955Z,1.85
2023-03-31T05:08:24.374Z,2.03
2023-03-31T05:11:09.975Z,2.58
2023-03-31T05:13:55.316Z,2.03
2023-03-31T05:16:41.959Z,1.52
2023-03-31T05:19:26.987Z,1.73
2023-03-31T05:22:12.403Z,1.83
2023-03-31T05:24:57.806Z,1.80
2023-03-31T05:27:43.234Z,1.80
2023-03-31T05:30:30.213Z,1.75
2023-03-31T05:33:16.845Z,1.45
2023-03-31T05:36:02.246Z,1.70
2023-03-31T05:38:47.810Z,2.67
2023-03-31T05:41:33.336Z,1.60
2023-03-31T05:44:20.705Z,1.67
2023-03-31T05:47:06.070Z,1.90
2023-03-31T05:49:51.954Z,1.90
2023-03-31T05:52:37.418Z,1.40
2023-03-31T05:55:22.827Z,1.38
2023-03-31T05:58:08.418Z,1.77
2023-03-31T06:01:06.375Z,1.90
2023-03-31T06:03:52.314Z,3.17
2023-03-31T06:06:38.057Z,2.45
2023-03-31T06:09:23.724Z,1.88
2023-03-31T06:12:09.137Z,2.17
2023-03-31T06:14:54.146Z,1.65
2023-03-31T06:17:39.701Z,1.70
2023-03-31T06:20:28.348Z,1.33
2023-03-31T06:23:13.930Z,1.95
2023-03-31T06:26:03.111Z,1.55
2023-03-31T06:28:49.371Z,1.67
2023-03-31T06:31:34.602Z,1.88
2023-03-31T06:34:21.366Z,2.58
2023-03-31T06:37:06.736Z,2.05
2023-03-31T06:39:52.162Z,1.70
2023-03-31T06:42:37.687Z,3.38
2023-03-31T06:45:23.002Z,3.58
2023-03-31T06:48:08.483Z,2.00
2023-03-31T06:50:54.819Z,1.70
2023-03-31T06:53:40.324Z,1.98
2023-03-31T06:56:27.254Z,2.05
2023-03-31T06:59:12.465Z,2.08
2023-03-31T07:01:58.043Z,1.70
2023-03-31T07:04:43.182Z,1.30
2023-03-31T07:07:32.459Z,1.50
2023-03-31T07:10:17.887Z,1.40
2023-03-31T07:13:05.523Z,1.90
2023-03-31T07:15:51.443Z,3.17
2023-03-31T07:18:41.276Z,2.33
2023-03-31T07:21:26.722Z,1.75
2023-03-31T07:24:11.964Z,2.10
2023-03-31T07:26:57.182Z,2.50
2023-03-31T07:29:42.522Z,1.83
2023-03-31T07:32:29.191Z,2.88
2023-03-31T07:35:14.636Z,1.90
2023-03-31T07:38:00.259Z,1.88
2023-03-31T07:40:49.065Z,1.55
2023-03-31T07:43:41.408Z,2.88
2023-03-31T07:46:28.285Z,2.05
2023-03-31T07:49:16.050Z,2.03
2023-03-31T07:52:01.561Z,1.75
2023-03-31T07:54:46.831Z,2.42
2023-03-31T07:57:31.981Z,2.78
2023-03-31T08:00:18.051Z,2.08
2023-03-31T08:03:03.729Z,4.50
2023-03-31T08:05:52.554Z,3.22
2023-03-31T08:08:38.501Z,2.08
2023-03-31T08:11:24.336Z,3.17
2023-03-31T08:14:09.321Z,1.92
2023-03-31T08:16:55.444Z,2.72
2023-03-31T08:19:40.610Z,3.03
2023-03-31T08:22:26.352Z,2.50
2023-03-31T08:25:11.478Z,2.00
2023-03-31T08:27:56.942Z,2.00
2023-03-31T08:30:42.289Z,2.40
2023-03-31T08:33:27.732Z,2.28
2023-03-31T08:36:13.804Z,2.22
2023-03-31T08:38:59.763Z,2.38
2023-03-31T08:41:59.873Z,2.55
2023-03-31T08:45:02.024Z,4.95
2023-03-31T08:47:51.719Z,3.70
2023-03-31T08:50:44.184Z,3.40
2023-03-31T08:53:34.704Z,3.40
2023-03-31T08:56:22.910Z,3.95
2023-03-31T08:59:17.917Z,2.10
2023-03-31T09:02:15.603Z,2.58
2023-03-31T09:05:13.218Z,3.22
2023-03-31T09:08:11.628Z,2.95
2023-03-31T09:11:04.849Z,2.72
2023-03-31T09:14:10.351Z,3.10
2023-03-31T09:17:18.362Z,2.88
2023-03-31T09:20:15.943Z,3.55
2023-03-31T09:23:25.881Z,5.20
2023-03-31T09:26:26.602Z,2.65
2023-03-31T09:29:19.297Z,3.72
2023-03-31T09:32:17.693Z,3.00
2023-03-31T09:35:17.913Z,3.55
2023-03-31T09:38:03.183Z,2.60
2023-03-31T09:40:48.702Z,2.80
2023-03-31T09:43:38.482Z,3.15
2023-03-31T09:46:34.664Z,2.95
2023-03-31T09:49:22.782Z,2.70
2023-03-31T09:52:32.885Z,2.60
2023-03-31T09:55:31.973Z,2.60
2023-03-31T09:58:25.043Z,3.17
2023-03-31T10:01:12.777Z,4.00
2023-03-31T10:03:58.444Z,3.63
2023-03-31T10:06:43.681Z,2.80
2023-03-31T10:09:32.624Z,4.03
2023-03-31T10:12:24.331Z,3.08
2023-03-31T10:15:21.607Z,2.90
2023-03-31T10:18:06.811Z,3.22
2023-03-31T10:20:52.921Z,3.70
2023-03-31T10:23:38.113Z,3.53
2023-03-31T10:26:27.976Z,3.22
2023-03-31T10:29:15.642Z,3.20
2023-03-31T10:32:29.490Z,2.95
2023-03-31T10:35:33.640Z,3.10
2023-03-31T10:38:34.348Z,3.83
2023-03-31T10:41:29.067Z,3.63
2023-03-31T10:44:38.398Z,3.25
2023-03-31T10:47:23.568Z,3.30
2023-03-31T10:50:16.253Z,2.92
2023-03-31T10:53:10.223Z,4.82
2023-03-31T10:56:09.223Z,3.33
2023-03-31T10:59:21.158Z,2.22
2023-03-31T11:02:40.001Z,1.98
2023-03-31T11:06:00.895Z,1.65
2023-03-31T11:09:04.413Z,1.83
2023-03-31T11:12:11.834Z,1.50
2023-03-31T11:15:19.418Z,1.60
2023-03-31T11:18:13.556Z,2.20
2023-03-31T11:21:24.845Z,2.20
2023-03-31T11:24:42.729Z,1.30
2023-03-31T11:27:56.301Z,1.58
2023-03-31T11:31:18.589Z,1.52
2023-03-31T11:34:22.399Z,1.65
2023-03-31T11:37:23.029Z,1.40
2023-03-31T11:40:21.577Z,1.33
2023-03-31T11:43:30.358Z,1.05
2023-03-31T11:46:21.578Z,1.00
2023-03-31T11:49:16.316Z,1.15
2023-03-31T11:52:15.328Z,3.05
2023-03-31T11:55:07.426Z,2.20
2023-03-31T11:58:16.009Z,1.75
2023-03-31T12:01:16.992Z,1.20
2023-03-31T12:04:19.903Z,1.02
2023-03-31T12:07:29.535Z,0.82
2023-03-31T12:10:29.407Z,0.80
2023-03-31T12:13:36.180Z,1.25
2023-03-31T12:16:43.755Z,0.70
2023-03-31T12:19:35.800Z,0.50
2023-03-31T12:22:32.621Z,0.63
2023-03-31T12:25:26.634Z,0.65
2023-03-31T12:28:12.497Z,0.50
2023-03-31T12:30:59.546Z,0.50
2023-03-31T12:33:50.601Z,0.70
2023-03-31T12:37:06.604Z,0.73
2023-03-31T12:40:16.482Z,2.85
2023-03-31T12:43:16.992Z,0.80
2023-03-31T12:46:33.780Z,0.65
2023-03-31T12:49:35.714Z,0.68
2023-03-31T12:52:41.328Z,0.85
2023-03-31T12:55:40.948Z,1.13
2023-03-31T12:58:34.023Z,1.10
2023-03-31T13:01:22.749Z,0.90
2023-03-31T13:04:28.652Z,1.80
2023-03-31T13:07:38.583Z,1.50
2023-03-31T13:10:30.625Z,1.42
2023-03-31T13:13:17.596Z,2.10
2023-03-31T13:16:03.384Z,1.27
2023-03-31T13:18:52.922Z,1.42
2023-03-31T13:22:01.255Z,1.38
2023-03-31T13:24:46.611Z,0.93
2023-03-31T13:27:35.272Z,2.25
2023-03-31T13:30:39.110Z,1.00
2023-03-31T13:33:26.959Z,1.65
2023-03-31T13:36:43.101Z,2.70
2023-03-31T13:39:45.750Z,1.15
2023-03-31T13:43:16.178Z,0.68
2023-03-31T13:46:20.465Z,0.77
2023-03-31T13:49:46.323Z,0.82
2023-03-31T13:52:49.727Z,0.77
2023-03-31T13:55:41.204Z,0.85
2023-03-31T13:58:48.324Z,1.05
2023-03-31T14:01:56.321Z,0.77
2023-03-31T14:04:56.662Z,0.75
2023-03-31T14:07:49.780Z,0.57
2023-03-31T14:10:37.193Z,0.80
2023-03-31T14:13:25.309Z,0.88
2023-03-31T14:16:12.346Z,0.80
2023-03-31T14:19:35.819Z,0.70
2023-03-31T14:22:32.242Z,0.68
2023-03-31T14:25:40.816Z,0.85
2023-03-31T14:28:58.296Z,0.60
2023-03-31T14:32:07.112Z,1.08
2023-03-31T14:35:23.674Z,1.08
2023-03-31T14:38:19.043Z,0.60
2023-03-31T14:41:04.719Z,1.33
2023-03-31T14:43:52.283Z,0.85
2023-03-31T14:46:38.927Z,1.17
2023-03-31T14:49:37.484Z,0.70
2023-03-31T14:52:25.900Z,0.77
2023-03-31T14:55:15.770Z,1.65
2023-03-31T14:58:02.406Z,0.98
2023-03-31T15:00:48.254Z,1.10
2023-03-31T15:03:41.587Z,0.95
2023-03-31T15:06:27.464Z,1.10
2023-03-31T15:09:28.283Z,0.98
2023-03-31T15:12:16.695Z,1.27
2023-03-31T15:15:06.834Z,1.05
2023-03-31T15:17:52.634Z,1.10
2023-03-31T15:20:41.570Z,0.88
2023-03-31T15:23:28.393Z,0.82
2023-03-31T15:26:22.604Z,0.90
2023-03-31T15:29:18.280Z,0.95
2023-03-31T15:32:06.856Z,1.30
2023-03-31T15:34:52.656Z,0.90
2023-03-31T15:37:41.522Z,1.30
2023-03-31T15:40:39.697Z,1.17
2023-03-31T15:43:43.225Z,1.02
2023-03-31T15:46:43.673Z,0.98
2023-03-31T15:49:29.980Z,1.25
2023-03-31T15:52:34.114Z,1.13
2023-03-31T15:55:40.657Z,1.35
2023-03-31T15:58:47.073Z,0.90
2023-03-31T16:01:44.060Z,1.00
2023-03-31T16:04:32.065Z,0.80
2023-03-31T16:07:23.626Z,1.33
2023-03-31T16:10:21.597Z,1.40
2023-03-31T16:13:10.581Z,1.50
2023-03-31T16:15:56.628Z,2.63
2023-03-31T16:18:47.488Z,1.45
2023-03-31T16:21:47.468Z,1.30
2023-03-31T16:24:35.294Z,1.08
2023-03-31T16:27:22.068Z,1.10
2023-03-31T16:30:11.687Z,1.73
2023-03-31T16:33:09.342Z,1.17
2023-03-31T16:35:56.359Z,1.60
2023-03-31T16:38:41.860Z,1.38
2023-03-31T16:41:31.411Z,0.95
2023-03-31T16:44:16.761Z,1.10
2023-03-31T16:47:02.327Z,1.20
2023-03-31T16:49:47.561Z,1.10
2023-03-31T16:52:33.127Z,1.08
2023-03-31T16:55:18.480Z,1.40
2023-03-31T16:58:04.086Z,1.20
2023-03-31T17:00:49.356Z,1.10
2023-03-31T17:03:36.730Z,1.30
2023-03-31T17:06:21.984Z,1.70
2023-03-31T17:09:07.421Z,1.10
2023-03-31T17:11:52.670Z,1.00
2023-03-31T17:14:38.109Z,1.00
2023-03-31T17:17:23.608Z,0.90
2023-03-31T17:20:09.982Z,1.20
2023-03-31T17:22:55.117Z,0.77
2023-03-31T17:25:47.931Z,1.00
2023-03-31T17:31:21.496Z,1.05
2023-03-31T17:34:06.833Z,1.00
2023-03-31T17:36:54.687Z,0.88
2023-03-31T17:39:39.843Z,1.00
2023-03-31T17:42:25.833Z,1.17
2023-03-31T17:45:12.144Z,1.30
2023-03-31T17:47:58.282Z,1.98
2023-03-31T17:50:43.482Z,1.83
2023-03-31T17:53:28.964Z,1.85
2023-03-31T17:56:16.437Z,1.02
2023-03-31T17:59:01.741Z,1.05
2023-03-31T18:01:47.223Z,1.17
2023-03-31T18:04:32.526Z,1.10
2023-03-31T18:07:18.481Z,1.15
2023-03-31T18:10:07.796Z,1.25
2023-03-31T18:12:54.895Z,1.33
2023-03-31T18:15:46.756Z,1.38
2023-03-31T18:18:32.581Z,2.03
2023-03-31T18:21:18.012Z,1.60
2023-03-31T18:24:03.680Z,1.10
2023-03-31T18:26:49.122Z,1.20
2023-03-31T18:29:34.383Z,1.35
2023-03-31T18:32:21.302Z,0.90
2023-03-31T18:35:07.349Z,0.90
2023-03-31T18:37:53.460Z,1.00
2023-03-31T18:40:38.602Z,1.00
2023-03-31T18:43:25.957Z,1.10
2023-03-31T18:46:11.775Z,0.80
2023-03-31T18:48:56.931Z,0.90
2023-03-31T18:51:42.257Z,3.13
2023-03-31T18:54:27.564Z,2.10
2023-03-31T18:57:13.201Z,1.23
2023-03-31T18:59:58.475Z,1.20
2023-03-31T19:02:44.075Z,0.90
2023-03-31T19:05:30.430Z,0.95
2023-03-31T19:08:16.275Z,0.98
2023-03-31T19:11:16.116Z,0.90
2023-03-31T19:14:01.459Z,0.93
2023-03-31T19:16:46.768Z,1.08
2023-03-31T19:19:32.040Z,1.23
2023-03-31T19:22:17.596Z,1.70
2023-03-31T19:25:03.484Z,0.90
2023-03-31T19:27:49.357Z,4.43
2023-03-31T19:30:35.062Z,2.20
2023-03-31T19:33:20.311Z,1.05
2023-03-31T19:36:05.954Z,1.05
2023-03-31T19:38:51.933Z,2.38
2023-03-31T19:41:37.284Z,1.65
2023-03-31T19:44:22.867Z,1.80
2023-03-31T19:47:07.981Z,1.60
2023-03-31T19:49:53.669Z,1.50
2023-03-31T19:52:38.868Z,2.25
2023-03-31T19:55:24.161Z,1.55
2023-03-31T19:58:10.926Z,1.90
2023-03-31T20:00:57.582Z,2.88
2023-03-31T20:03:43.864Z,2.20
2023-03-31T20:06:30.694Z,2.45
2023-03-31T20:09:15.860Z,2.88
2023-03-31T20:12:01.450Z,2.75
2023-03-31T20:14:47.539Z,1.85
2023-03-31T20:17:32.919Z,1.42
2023-03-31T20:20:18.582Z,1.20
2023-03-31T20:23:03.956Z,1.67
2023-03-31T20:25:51.133Z,1.52
2023-03-31T20:28:37.982Z,1.17
2023-03-31T20:31:30.278Z,1.40
2023-03-31T20:34:17.898Z,1.80
2023-03-31T20:37:05.771Z,1.08
2023-03-31T20:39:51.302Z,1.50
2023-03-31T20:42:36.476Z,1.20
2023-03-31T20:45:22.163Z,1.60
2023-03-31T20:48:07.776Z,1.45
2023-03-31T20:50:53.168Z,1.52
2023-03-31T20:53:44.450Z,1.35
2023-03-31T20:56:33.936Z,1.17
2023-03-31T20:59:19.417Z,2.00
2023-03-31T21:02:04.823Z,0.95
2023-03-31T21:04:51.275Z,0.93
2023-03-31T21:07:36.921Z,1.08
2023-03-31T21:10:24.349Z,1.05
2023-03-31T21:13:11.410Z,1.25
2023-03-31T21:15:58.756Z,0.93
2023-03-31T21:18:43.925Z,0.90
2023-03-31T21:21:30.293Z,1.20
2023-03-31T21:24:15.898Z,0.63
2023-03-31T21:27:00.999Z,1.52
2023-03-31T21:29:46.267Z,0.90
2023-03-31T21:32:31.620Z,1.55
2023-03-31T21:35:17.831Z,1.05
2023-03-31T21:38:03.035Z,1.00
2023-03-31T21:40:50.083Z,1.13
2023-03-31T21:43:35.869Z,2.13
2023-03-31T21:46:27.303Z,0.90
2023-03-31T21:49:12.733Z,1.17
2023-03-31T21:51:58.992Z,1.30
2023-03-31T21:54:44.855Z,1.02
2023-03-31T21:57:30.143Z,1.17
2023-03-31T22:00:15.708Z,0.90
2023-03-31T22:05:49.167Z,1.00
2023-03-31T22:08:36.689Z,1.08
2023-03-31T22:11:24.012Z,0.68
2023-03-31T22:14:09.225Z,0.88
2023-03-31T22:16:54.723Z,0.80
2023-03-31T22:19:40.386Z,0.75
2023-03-31T22:22:25.549Z,0.63
2023-03-31T22:25:11.105Z,0.85
2023-03-31T22:27:56.477Z,0.70
2023-03-31T22:30:42.718Z,1.10
2023-03-31T22:33:27.637Z,0.82
2023-03-31T22:36:13.378Z,0.70
2023-03-31T22:38:58.498Z,0.90
2023-03-31T22:41:44.852Z,0.75
2023-03-31T22:44:29.948Z,0.80
2023-03-31T22:47:15.946Z,0.85
2023-03-31T22:50:01.129Z,0.70
2023-03-31T22:52:46.432Z,0.73
2023-03-31T22:55:31.912Z,0.70
2023-03-31T22:58:17.132Z,0.85
2023-03-31T23:01:02.891Z,0.70
2023-03-31T23:03:48.450Z,0.57
2023-03-31T23:06:36.041Z,0.80
2023-03-31T23:09:23.698Z,1.00
2023-03-31T23:12:09.252Z,0.70
2023-03-31T23:14:54.604Z,0.73
2023-03-31T23:17:40.419Z,0.70
2023-03-31T23:20:25.668Z,1.00
2023-03-31T23:23:11.325Z,0.90
2023-03-31T23:26:00.839Z,0.68
2023-03-31T23:28:49.291Z,0.55
2023-03-31T23:31:34.422Z,0.77
2023-03-31T23:34:19.610Z,0.60
2023-03-31T23:37:04.842Z,0.70
2023-03-31T23:39:50.713Z,0.68
2023-03-31T23:42:36.458Z,0.88
2023-03-31T23:45:21.746Z,0.77
2023-03-31T23:48:06.987Z,1.38
2023-03-31T23:50:52.244Z,0.75
2023-03-31T23:53:37.922Z,1.02
2023-03-31T23:56:23.421Z,1.67
2023-03-31T23:59:08.880Z,0.65
